sensor_id;sensor_type;location;lat;lon;timestamp;P1;durP1;ratioP1;P2;durP2;ratioP2
12776;SDS011;6452;41.572;23.732;2023-04-20T00:00:48;2.90;;;2.70;;
12776;SDS011;6452;41.572;23.732;2023-04-20T00:03:14;2.90;;;2.70;;
12776;SDS011;6452;41.572;23.732;2023-04-20T00:05:45;3.28;;;2.72;;
12776;SDS011;6452;41.572;23.732;2023-04-20T00:08:14;2.78;;;2.58;;
12776;SDS011;6452;41.572;23.732;2023-04-20T00:10:42;2.58;;;2.38;;
12776;SDS011;6452;41.572;23.732;2023-04-20T00:13:09;2.78;;;2.63;;
12776;SDS011;6452;41.572;23.732;2023-04-20T00:15:35;2.72;;;2.53;;
12776;SDS011;6452;41.572;23.732;2023-04-20T00:18:01;2.70;;;2.50;;
12776;SDS011;6452;41.572;23.732;2023-04-20T00:20:27;3.60;;;3.17;;
12776;SDS011;6452;41.572;23.732;2023-04-20T00:22:54;2.90;;;2.70;;
12776;SDS011;6452;41.572;23.732;2023-04-20T00:25:20;2.92;;;2.65;;
12776;SDS011;6452;41.572;23.732;2023-04-20T00:27:46;2.63;;;2.42;;
12776;SDS011;6452;41.572;23.732;2023-04-20T00:30:12;2.85;;;2.67;;
12776;SDS011;6452;41.572;23.732;2023-04-20T00:32:39;3.00;;;2.80;;
12776;SDS011;6452;41.572;23.732;2023-04-20T00:35:06;3.00;;;2.80;;
12776;SDS011;6452;41.572;23.732;2023-04-20T00:37:32;3.03;;;2.83;;
12776;SDS011;6452;41.572;23.732;2023-04-20T00:39:58;4.18;;;3.03;;
12776;SDS011;6452;41.572;23.732;2023-04-20T00:42:25;2.88;;;2.60;;
12776;SDS011;6452;41.572;23.732;2023-04-20T00:44:50;3.53;;;3.28;;
12776;SDS011;6452;41.572;23.732;2023-04-20T00:47:16;3.00;;;2.78;;
12776;SDS011;6452;41.572;23.732;2023-04-20T00:49:43;3.25;;;2.80;;
12776;SDS011;6452;41.572;23.732;2023-04-20T00:52:08;3.30;;;2.58;;
12776;SDS011;6452;41.572;23.732;2023-04-20T00:54:35;2.78;;;2.60;;
12776;SDS011;6452;41.572;23.732;2023-04-20T00:57:01;2.70;;;2.55;;
12776;SDS011;6452;41.572;23.732;2023-04-20T00:59:28;3.00;;;2.80;;
12776;SDS011;6452;41.572;23.732;2023-04-20T01:01:55;3.03;;;2.83;;
12776;SDS011;6452;41.572;23.732;2023-04-20T01:04:21;2.97;;;2.78;;
12776;SDS011;6452;41.572;23.732;2023-04-20T01:06:47;2.92;;;2.72;;
12776;SDS011;6452;41.572;23.732;2023-04-20T01:09:13;3.15;;;2.63;;
12776;SDS011;6452;41.572;23.732;2023-04-20T01:11:39;2.35;;;2.25;;
12776;SDS011;6452;41.572;23.732;2023-04-20T01:14:05;3.13;;;2.92;;
12776;SDS011;6452;41.572;23.732;2023-04-20T01:16:31;2.70;;;2.60;;
12776;SDS011;6452;41.572;23.732;2023-04-20T01:18:59;3.00;;;2.67;;
12776;SDS011;6452;41.572;23.732;2023-04-20T01:21:25;2.90;;;2.70;;
12776;SDS011;6452;41.572;23.732;2023-04-20T01:23:51;2.67;;;2.55;;
12776;SDS011;6452;41.572;23.732;2023-04-20T01:26:17;2.97;;;2.78;;
12776;SDS011;6452;41.572;23.732;2023-04-20T01:28:44;2.80;;;2.60;;
12776;SDS011;6452;41.572;23.732;2023-04-20T01:31:10;3.58;;;3.28;;
12776;SDS011;6452;41.572;23.732;2023-04-20T01:33:36;3.78;;;3.30;;
12776;SDS011;6452;41.572;23.732;2023-04-20T01:36:03;4.10;;;2.85;;
12776;SDS011;6452;41.572;23.732;2023-04-20T01:38:30;3.47;;;3.17;;
12776;SDS011;6452;41.572;23.732;2023-04-20T01:40:57;3.55;;;3.08;;
12776;SDS011;6452;41.572;23.732;2023-04-20T01:43:24;3.33;;;2.90;;
12776;SDS011;6452;41.572;23.732;2023-04-20T01:45:50;2.80;;;2.60;;
12776;SDS011;6452;41.572;23.732;2023-04-20T01:48:16;3.70;;;3.38;;
12776;SDS011;6452;41.572;23.732;2023-04-20T01:50:43;4.03;;;2.65;;
12776;SDS011;6452;41.572;23.732;2023-04-20T01:53:09;2.78;;;2.58;;
12776;SDS011;6452;41.572;23.732;2023-04-20T01:55:35;3.65;;;3.35;;
12776;SDS011;6452;41.572;23.732;2023-04-20T01:58:01;5.13;;;3.13;;
12776;SDS011;6452;41.572;23.732;2023-04-20T02:00:27;2.88;;;2.67;;
12776;SDS011;6452;41.572;23.732;2023-04-20T02:02:53;2.83;;;2.63;;
12776;SDS011;6452;41.572;23.732;2023-04-20T02:05:20;2.80;;;2.60;;
12776;SDS011;6452;41.572;23.732;2023-04-20T02:07:46;2.90;;;2.70;;
12776;SDS011;6452;41.572;23.732;2023-04-20T02:10:12;4.70;;;2.58;;
12776;SDS011;6452;41.572;23.732;2023-04-20T02:12:39;3.67;;;3.38;;
12776;SDS011;6452;41.572;23.732;2023-04-20T02:15:05;3.00;;;2.80;;
12776;SDS011;6452;41.572;23.732;2023-04-20T02:17:33;3.38;;;3.08;;
12776;SDS011;6452;41.572;23.732;2023-04-20T02:20:02;4.97;;;4.07;;
12776;SDS011;6452;41.572;23.732;2023-04-20T02:22:31;3.42;;;3.13;;
12776;SDS011;6452;41.572;23.732;2023-04-20T02:25:00;4.70;;;4.30;;
12776;SDS011;6452;41.572;23.732;2023-04-20T02:27:26;4.85;;;4.40;;
12776;SDS011;6452;41.572;23.732;2023-04-20T02:29:52;5.15;;;4.63;;
12776;SDS011;6452;41.572;23.732;2023-04-20T02:32:18;3.92;;;3.47;;
12776;SDS011;6452;41.572;23.732;2023-04-20T02:34:45;4.60;;;4.15;;
12776;SDS011;6452;41.572;23.732;2023-04-20T02:37:11;4.47;;;3.17;;
12776;SDS011;6452;41.572;23.732;2023-04-20T02:39:37;4.07;;;3.70;;
12776;SDS011;6452;41.572;23.732;2023-04-20T02:42:03;4.32;;;3.63;;
12776;SDS011;6452;41.572;23.732;2023-04-20T02:44:30;5.35;;;4.50;;
12776;SDS011;6452;41.572;23.732;2023-04-20T02:46:56;5.43;;;4.40;;
12776;SDS011;6452;41.572;23.732;2023-04-20T02:49:22;5.05;;;3.40;;
12776;SDS011;6452;41.572;23.732;2023-04-20T02:51:48;6.65;;;4.90;;
12776;SDS011;6452;41.572;23.732;2023-04-20T02:54:15;7.53;;;6.63;;
12776;SDS011;6452;41.572;23.732;2023-04-20T02:56:41;7.05;;;5.28;;
12776;SDS011;6452;41.572;23.732;2023-04-20T02:59:07;5.25;;;4.07;;
12776;SDS011;6452;41.572;23.732;2023-04-20T03:01:33;5.07;;;4.35;;
12776;SDS011;6452;41.572;23.732;2023-04-20T03:04:00;18.25;;;12.02;;
12776;SDS011;6452;41.572;23.732;2023-04-20T03:06:26;25.70;;;16.13;;
12776;SDS011;6452;41.572;23.732;2023-04-20T03:08:52;15.77;;;9.98;;
12776;SDS011;6452;41.572;23.732;2023-04-20T03:11:18;10.80;;;6.80;;
12776;SDS011;6452;41.572;23.732;2023-04-20T03:13:44;7.82;;;5.88;;
12776;SDS011;6452;41.572;23.732;2023-04-20T03:16:11;5.95;;;4.68;;
12776;SDS011;6452;41.572;23.732;2023-04-20T03:18:37;4.63;;;4.15;;
12776;SDS011;6452;41.572;23.732;2023-04-20T03:21:03;4.55;;;3.78;;
12776;SDS011;6452;41.572;23.732;2023-04-20T03:23:30;5.00;;;4.25;;
12776;SDS011;6452;41.572;23.732;2023-04-20T03:25:56;5.88;;;5.28;;
12776;SDS011;6452;41.572;23.732;2023-04-20T03:28:22;7.13;;;5.22;;
12776;SDS011;6452;41.572;23.732;2023-04-20T03:30:48;9.13;;;6.13;;
12776;SDS011;6452;41.572;23.732;2023-04-20T03:33:14;8.70;;;6.30;;
12776;SDS011;6452;41.572;23.732;2023-04-20T03:35:41;8.98;;;6.93;;
12776;SDS011;6452;41.572;23.732;2023-04-20T03:38:07;7.55;;;6.40;;
12776;SDS011;6452;41.572;23.732;2023-04-20T03:40:33;12.65;;;8.88;;
12776;SDS011;6452;41.572;23.732;2023-04-20T03:42:58;6.35;;;5.65;;
12776;SDS011;6452;41.572;23.732;2023-04-20T03:45:25;4.95;;;4.10;;
12776;SDS011;6452;41.572;23.732;2023-04-20T03:47:51;5.05;;;4.63;;
12776;SDS011;6452;41.572;23.732;2023-04-20T03:50:17;5.75;;;4.70;;
12776;SDS011;6452;41.572;23.732;2023-04-20T03:52:43;6.18;;;5.55;;
12776;SDS011;6452;41.572;23.732;2023-04-20T03:55:09;7.20;;;6.45;;
12776;SDS011;6452;41.572;23.732;2023-04-20T03:57:36;10.88;;;8.38;;
12776;SDS011;6452;41.572;23.732;2023-04-20T04:00:02;9.38;;;8.15;;
12776;SDS011;6452;41.572;23.732;2023-04-20T04:02:29;9.18;;;7.20;;
12776;SDS011;6452;41.572;23.732;2023-04-20T04:04:55;6.53;;;5.82;;
12776;SDS011;6452;41.572;23.732;2023-04-20T04:07:21;7.72;;;6.32;;
12776;SDS011;6452;41.572;23.732;2023-04-20T04:09:47;8.23;;;6.47;;
12776;SDS011;6452;41.572;23.732;2023-04-20T04:12:13;7.03;;;6.32;;
12776;SDS011;6452;41.572;23.732;2023-04-20T04:14:40;7.45;;;6.15;;
12776;SDS011;6452;41.572;23.732;2023-04-20T04:17:06;10.82;;;6.70;;
12776;SDS011;6452;41.572;23.732;2023-04-20T04:19:32;7.25;;;5.63;;
12776;SDS011;6452;41.572;23.732;2023-04-20T04:21:58;8.30;;;6.78;;
12776;SDS011;6452;41.572;23.732;2023-04-20T04:24:25;7.43;;;6.72;;
12776;SDS011;6452;41.572;23.732;2023-04-20T04:26:51;8.70;;;7.05;;
12776;SDS011;6452;41.572;23.732;2023-04-20T04:29:20;10.88;;;7.10;;
12776;SDS011;6452;41.572;23.732;2023-04-20T04:31:47;7.90;;;6.50;;
12776;SDS011;6452;41.572;23.732;2023-04-20T04:34:14;7.32;;;6.20;;
12776;SDS011;6452;41.572;23.732;2023-04-20T04:36:42;5.65;;;5.15;;
12776;SDS011;6452;41.572;23.732;2023-04-20T04:39:08;6.78;;;6.07;;
12776;SDS011;6452;41.572;23.732;2023-04-20T04:41:34;6.32;;;5.65;;
12776;SDS011;6452;41.572;23.732;2023-04-20T04:44:01;5.50;;;4.95;;
12776;SDS011;6452;41.572;23.732;2023-04-20T04:46:27;5.45;;;4.38;;
12776;SDS011;6452;41.572;23.732;2023-04-20T04:48:54;5.88;;;4.78;;
12776;SDS011;6452;41.572;23.732;2023-04-20T04:51:20;6.40;;;5.55;;
12776;SDS011;6452;41.572;23.732;2023-04-20T04:53:47;9.02;;;4.95;;
12776;SDS011;6452;41.572;23.732;2023-04-20T04:56:14;7.07;;;5.93;;
12776;SDS011;6452;41.572;23.732;2023-04-20T04:58:40;7.68;;;5.18;;
12776;SDS011;6452;41.572;23.732;2023-04-20T05:01:06;6.40;;;5.63;;
12776;SDS011;6452;41.572;23.732;2023-04-20T05:03:32;7.28;;;5.38;;
12776;SDS011;6452;41.572;23.732;2023-04-20T05:05:58;5.03;;;4.55;;
12776;SDS011;6452;41.572;23.732;2023-04-20T05:08:25;4.78;;;3.85;;
12776;SDS011;6452;41.572;23.732;2023-04-20T05:10:51;4.25;;;3.85;;
12776;SDS011;6452;41.572;23.732;2023-04-20T05:13:17;4.97;;;4.47;;
12776;SDS011;6452;41.572;23.732;2023-04-20T05:15:43;5.05;;;4.60;;
12776;SDS011;6452;41.572;23.732;2023-04-20T05:18:09;5.35;;;4.85;;
12776;SDS011;6452;41.572;23.732;2023-04-20T05:20:35;5.32;;;4.82;;
12776;SDS011;6452;41.572;23.732;2023-04-20T05:23:02;10.27;;;5.30;;
12776;SDS011;6452;41.572;23.732;2023-04-20T05:25:28;9.82;;;5.82;;
12776;SDS011;6452;41.572;23.732;2023-04-20T05:27:54;10.32;;;7.07;;
12776;SDS011;6452;41.572;23.732;2023-04-20T05:30:20;8.40;;;4.97;;
12776;SDS011;6452;41.572;23.732;2023-04-20T05:32:46;7.30;;;5.55;;
12776;SDS011;6452;41.572;23.732;2023-04-20T05:35:12;6.03;;;5.43;;
12776;SDS011;6452;41.572;23.732;2023-04-20T05:37:38;6.10;;;5.50;;
12776;SDS011;6452;41.572;23.732;2023-04-20T05:40:04;6.65;;;5.40;;
12776;SDS011;6452;41.572;23.732;2023-04-20T05:42:32;5.10;;;4.50;;
12776;SDS011;6452;41.572;23.732;2023-04-20T05:45:02;6.18;;;5.55;;
12776;SDS011;6452;41.572;23.732;2023-04-20T05:47:29;9.85;;;5.20;;
12776;SDS011;6452;41.572;23.732;2023-04-20T05:49:55;5.35;;;4.65;;
12776;SDS011;6452;41.572;23.732;2023-04-20T05:52:21;5.38;;;4.88;;
12776;SDS011;6452;41.572;23.732;2023-04-20T05:54:47;5.90;;;5.30;;
12776;SDS011;6452;41.572;23.732;2023-04-20T05:57:14;6.10;;;4.97;;
12776;SDS011;6452;41.572;23.732;2023-04-20T05:59:40;6.05;;;4.25;;
12776;SDS011;6452;41.572;23.732;2023-04-20T06:02:05;5.85;;;5.20;;
12776;SDS011;6452;41.572;23.732;2023-04-20T06:04:32;7.03;;;5.65;;
12776;SDS011;6452;41.572;23.732;2023-04-20T06:06:58;5.93;;;5.30;;
12776;SDS011;6452;41.572;23.732;2023-04-20T06:09:25;6.50;;;5.50;;
12776;SDS011;6452;41.572;23.732;2023-04-20T06:11:51;8.07;;;5.88;;
12776;SDS011;6452;41.572;23.732;2023-04-20T06:14:17;6.40;;;5.78;;
12776;SDS011;6452;41.572;23.732;2023-04-20T06:16:43;5.53;;;5.03;;
12776;SDS011;6452;41.572;23.732;2023-04-20T06:19:09;6.15;;;5.60;;
12776;SDS011;6452;41.572;23.732;2023-04-20T06:21:35;6.78;;;6.18;;
12776;SDS011;6452;41.572;23.732;2023-04-20T06:24:02;6.45;;;5.25;;
12776;SDS011;6452;41.572;23.732;2023-04-20T06:26:27;6.15;;;5.45;;
12776;SDS011;6452;41.572;23.732;2023-04-20T06:28:54;6.43;;;5.70;;
12776;SDS011;6452;41.572;23.732;2023-04-20T06:31:20;5.78;;;5.20;;
12776;SDS011;6452;41.572;23.732;2023-04-20T06:33:46;5.97;;;5.38;;
12776;SDS011;6452;41.572;23.732;2023-04-20T06:36:12;6.78;;;5.55;;
12776;SDS011;6452;41.572;23.732;2023-04-20T06:38:39;5.53;;;4.97;;
12776;SDS011;6452;41.572;23.732;2023-04-20T06:41:05;5.90;;;5.32;;
12776;SDS011;6452;41.572;23.732;2023-04-20T06:43:31;6.50;;;5.47;;
12776;SDS011;6452;41.572;23.732;2023-04-20T06:45:57;5.10;;;4.70;;
12776;SDS011;6452;41.572;23.732;2023-04-20T06:48:24;5.05;;;4.47;;
12776;SDS011;6452;41.572;23.732;2023-04-20T06:50:50;6.20;;;5.60;;
12776;SDS011;6452;41.572;23.732;2023-04-20T06:53:16;5.78;;;4.80;;
12776;SDS011;6452;41.572;23.732;2023-04-20T06:55:42;6.72;;;5.75;;
12776;SDS011;6452;41.572;23.732;2023-04-20T06:58:08;5.70;;;5.20;;
12776;SDS011;6452;41.572;23.732;2023-04-20T07:00:35;6.07;;;5.03;;
12776;SDS011;6452;41.572;23.732;2023-04-20T07:03:01;5.15;;;4.65;;
12776;SDS011;6452;41.572;23.732;2023-04-20T07:05:27;4.85;;;4.45;;
12776;SDS011;6452;41.572;23.732;2023-04-20T07:07:53;4.80;;;4.35;;
12776;SDS011;6452;41.572;23.732;2023-04-20T07:10:19;5.03;;;4.60;;
12776;SDS011;6452;41.572;23.732;2023-04-20T07:12:46;5.93;;;5.30;;
12776;SDS011;6452;41.572;23.732;2023-04-20T07:15:12;6.55;;;4.97;;
12776;SDS011;6452;41.572;23.732;2023-04-20T07:17:37;4.97;;;4.38;;
12776;SDS011;6452;41.572;23.732;2023-04-20T07:20:04;5.28;;;4.80;;
12776;SDS011;6452;41.572;23.732;2023-04-20T07:22:33;4.47;;;4.07;;
12776;SDS011;6452;41.572;23.732;2023-04-20T07:25:00;4.97;;;4.47;;
12776;SDS011;6452;41.572;23.732;2023-04-20T07:27:26;4.78;;;4.38;;
12776;SDS011;6452;41.572;23.732;2023-04-20T07:29:57;4.85;;;4.38;;
12776;SDS011;6452;41.572;23.732;2023-04-20T07:32:23;4.95;;;4.55;;
12776;SDS011;6452;41.572;23.732;2023-04-20T07:34:49;6.63;;;4.70;;
12776;SDS011;6452;41.572;23.732;2023-04-20T07:37:14;5.07;;;4.57;;
12776;SDS011;6452;41.572;23.732;2023-04-20T07:39:41;4.80;;;4.40;;
12776;SDS011;6452;41.572;23.732;2023-04-20T07:42:07;5.10;;;4.57;;
12776;SDS011;6452;41.572;23.732;2023-04-20T07:44:33;4.90;;;4.50;;
12776;SDS011;6452;41.572;23.732;2023-04-20T07:47:00;4.75;;;4.35;;
12776;SDS011;6452;41.572;23.732;2023-04-20T07:49:27;6.20;;;4.35;;
12776;SDS011;6452;41.572;23.732;2023-04-20T07:51:53;4.57;;;4.10;;
12776;SDS011;6452;41.572;23.732;2023-04-20T07:54:23;5.78;;;5.18;;
12776;SDS011;6452;41.572;23.732;2023-04-20T07:56:50;5.57;;;5.07;;
12776;SDS011;6452;41.572;23.732;2023-04-20T07:59:16;5.15;;;4.65;;
12776;SDS011;6452;41.572;23.732;2023-04-20T08:01:42;5.18;;;4.72;;
12776;SDS011;6452;41.572;23.732;2023-04-20T08:04:08;6.15;;;5.55;;
12776;SDS011;6452;41.572;23.732;2023-04-20T08:06:34;5.22;;;4.70;;
12776;SDS011;6452;41.572;23.732;2023-04-20T08:09:01;6.97;;;6.28;;
12776;SDS011;6452;41.572;23.732;2023-04-20T08:11:28;7.57;;;6.15;;
12776;SDS011;6452;41.572;23.732;2023-04-20T08:13:54;6.18;;;5.60;;
12776;SDS011;6452;41.572;23.732;2023-04-20T08:16:20;5.90;;;5.30;;
12776;SDS011;6452;41.572;23.732;2023-04-20T08:18:46;6.55;;;5.35;;
12776;SDS011;6452;41.572;23.732;2023-04-20T08:21:13;5.40;;;4.90;;
12776;SDS011;6452;41.572;23.732;2023-04-20T08:23:38;6.32;;;5.78;;
12776;SDS011;6452;41.572;23.732;2023-04-20T08:26:04;5.80;;;5.20;;
12776;SDS011;6452;41.572;23.732;2023-04-20T08:28:31;6.82;;;6.00;;
12776;SDS011;6452;41.572;23.732;2023-04-20T08:30:56;6.00;;;5.22;;
12776;SDS011;6452;41.572;23.732;2023-04-20T08:33:22;6.20;;;5.60;;
12776;SDS011;6452;41.572;23.732;2023-04-20T08:35:51;5.95;;;5.18;;
12776;SDS011;6452;41.572;23.732;2023-04-20T08:38:17;6.38;;;4.65;;
12776;SDS011;6452;41.572;23.732;2023-04-20T08:40:43;4.65;;;4.25;;
12776;SDS011;6452;41.572;23.732;2023-04-20T08:43:09;5.00;;;4.63;;
12776;SDS011;6452;41.572;23.732;2023-04-20T08:45:35;6.13;;;5.10;;
12776;SDS011;6452;41.572;23.732;2023-04-20T08:48:03;5.45;;;4.95;;
12776;SDS011;6452;41.572;23.732;2023-04-20T08:50:31;4.30;;;3.90;;
12776;SDS011;6452;41.572;23.732;2023-04-20T08:52:57;4.28;;;3.92;;
12776;SDS011;6452;41.572;23.732;2023-04-20T08:55:23;3.92;;;3.63;;
12776;SDS011;6452;41.572;23.732;2023-04-20T08:57:49;4.35;;;3.88;;
12776;SDS011;6452;41.572;23.732;2023-04-20T09:00:16;4.97;;;4.18;;
12776;SDS011;6452;41.572;23.732;2023-04-20T09:02:50;4.57;;;4.15;;
12776;SDS011;6452;41.572;23.732;2023-04-20T09:05:26;5.07;;;4.60;;
12776;SDS011;6452;41.572;23.732;2023-04-20T09:07:53;5.90;;;4.85;;
12776;SDS011;6452;41.572;23.732;2023-04-20T09:10:19;4.97;;;4.57;;
12776;SDS011;6452;41.572;23.732;2023-04-20T09:12:48;5.40;;;4.13;;
12776;SDS011;6452;41.572;23.732;2023-04-20T09:15:26;5.30;;;4.90;;
12776;SDS011;6452;41.572;23.732;2023-04-20T09:17:52;4.10;;;3.70;;
12776;SDS011;6452;41.572;23.732;2023-04-20T09:20:30;3.97;;;3.50;;
12776;SDS011;6452;41.572;23.732;2023-04-20T09:23:13;4.78;;;4.38;;
12776;SDS011;6452;41.572;23.732;2023-04-20T09:25:39;4.97;;;4.47;;
12776;SDS011;6452;41.572;23.732;2023-04-20T09:28:07;4.03;;;3.72;;
12776;SDS011;6452;41.572;23.732;2023-04-20T09:30:37;4.55;;;4.15;;
12776;SDS011;6452;41.572;23.732;2023-04-20T09:33:03;3.72;;;3.53;;
12776;SDS011;6452;41.572;23.732;2023-04-20T09:35:29;4.03;;;3.72;;
12776;SDS011;6452;41.572;23.732;2023-04-20T09:37:56;4.85;;;4.45;;
12776;SDS011;6452;41.572;23.732;2023-04-20T09:40:23;4.35;;;4.03;;
12776;SDS011;6452;41.572;23.732;2023-04-20T09:42:49;3.92;;;3.55;;
12776;SDS011;6452;41.572;23.732;2023-04-20T09:45:15;4.60;;;4.20;;
12776;SDS011;6452;41.572;23.732;2023-04-20T09:47:41;3.72;;;3.53;;
12776;SDS011;6452;41.572;23.732;2023-04-20T09:50:09;4.20;;;3.88;;
12776;SDS011;6452;41.572;23.732;2023-04-20T09:52:36;3.83;;;3.60;;
12776;SDS011;6452;41.572;23.732;2023-04-20T09:55:02;2.95;;;2.83;;
12776;SDS011;6452;41.572;23.732;2023-04-20T09:57:29;3.60;;;3.30;;
12776;SDS011;6452;41.572;23.732;2023-04-20T09:59:56;3.67;;;3.42;;
12776;SDS011;6452;41.572;23.732;2023-04-20T10:02:24;3.28;;;3.10;;
12776;SDS011;6452;41.572;23.732;2023-04-20T10:04:53;2.92;;;2.80;;
12776;SDS011;6452;41.572;23.732;2023-04-20T10:07:26;3.25;;;3.05;;
12776;SDS011;6452;41.572;23.732;2023-04-20T10:12:30;3.63;;;2.75;;
12776;SDS011;6452;41.572;23.732;2023-04-20T10:14:56;4.03;;;3.53;;
12776;SDS011;6452;41.572;23.732;2023-04-20T10:17:29;2.67;;;2.58;;
12776;SDS011;6452;41.572;23.732;2023-04-20T10:19:55;2.72;;;2.63;;
12776;SDS011;6452;41.572;23.732;2023-04-20T10:22:25;3.25;;;3.05;;
12776;SDS011;6452;41.572;23.732;2023-04-20T10:24:58;3.40;;;2.90;;
12776;SDS011;6452;41.572;23.732;2023-04-20T10:27:25;2.90;;;2.80;;
12776;SDS011;6452;41.572;23.732;2023-04-20T10:29:51;2.92;;;2.70;;
12776;SDS011;6452;41.572;23.732;2023-04-20T10:32:27;3.20;;;3.00;;
12776;SDS011;6452;41.572;23.732;2023-04-20T10:35:06;3.60;;;3.10;;
12776;SDS011;6452;41.572;23.732;2023-04-20T10:37:32;3.03;;;2.83;;
12776;SDS011;6452;41.572;23.732;2023-04-20T10:39:58;3.63;;;3.33;;
12776;SDS011;6452;41.572;23.732;2023-04-20T10:42:24;3.08;;;2.88;;
12776;SDS011;6452;41.572;23.732;2023-04-20T10:44:56;3.08;;;2.88;;
12776;SDS011;6452;41.572;23.732;2023-04-20T10:47:29;3.83;;;3.53;;
12776;SDS011;6452;41.572;23.732;2023-04-20T10:50:05;3.83;;;3.40;;
12776;SDS011;6452;41.572;23.732;2023-04-20T10:52:32;3.30;;;3.10;;
12776;SDS011;6452;41.572;23.732;2023-04-20T10:55:00;3.75;;;3.38;;
12776;SDS011;6452;41.572;23.732;2023-04-20T10:57:26;3.72;;;3.42;;
12776;SDS011;6452;41.572;23.732;2023-04-20T10:59:52;4.00;;;3.03;;
12776;SDS011;6452;41.572;23.732;2023-04-20T11:02:18;3.80;;;3.50;;
12776;SDS011;6452;41.572;23.732;2023-04-20T11:04:44;3.10;;;2.90;;
12776;SDS011;6452;41.572;23.732;2023-04-20T11:07:10;2.92;;;2.83;;
12776;SDS011;6452;41.572;23.732;2023-04-20T11:09:40;3.63;;;3.42;;
12776;SDS011;6452;41.572;23.732;2023-04-20T11:12:08;3.45;;;3.25;;
12776;SDS011;6452;41.572;23.732;2023-04-20T11:14:37;3.95;;;3.65;;
12776;SDS011;6452;41.572;23.732;2023-04-20T11:17:03;4.68;;;4.28;;
12776;SDS011;6452;41.572;23.732;2023-04-20T11:19:30;4.20;;;3.90;;
12776;SDS011;6452;41.572;23.732;2023-04-20T11:21:56;4.15;;;3.75;;
12776;SDS011;6452;41.572;23.732;2023-04-20T11:24:27;3.60;;;3.40;;
12776;SDS011;6452;41.572;23.732;2023-04-20T11:26:53;4.28;;;3.88;;
12776;SDS011;6452;41.572;23.732;2023-04-20T11:29:26;4.60;;;4.25;;
12776;SDS011;6452;41.572;23.732;2023-04-20T11:31:52;6.18;;;4.75;;
12776;SDS011;6452;41.572;23.732;2023-04-20T11:34:19;5.40;;;4.85;;
12776;SDS011;6452;41.572;23.732;2023-04-20T11:36:45;4.55;;;4.15;;
12776;SDS011;6452;41.572;23.732;2023-04-20T11:39:12;3.30;;;3.00;;
12776;SDS011;6452;41.572;23.732;2023-04-20T11:41:39;3.50;;;3.20;;
12776;SDS011;6452;41.572;23.732;2023-04-20T11:44:07;3.25;;;3.05;;
12776;SDS011;6452;41.572;23.732;2023-04-20T11:46:33;3.83;;;3.53;;
12776;SDS011;6452;41.572;23.732;2023-04-20T11:49:02;3.22;;;3.03;;
12776;SDS011;6452;41.572;23.732;2023-04-20T11:51:28;3.72;;;3.53;;
12776;SDS011;6452;41.572;23.732;2023-04-20T11:53:59;3.20;;;3.00;;
12776;SDS011;6452;41.572;23.732;2023-04-20T11:56:25;3.70;;;3.40;;
12776;SDS011;6452;41.572;23.732;2023-04-20T11:58:51;4.05;;;3.75;;
12776;SDS011;6452;41.572;23.732;2023-04-20T12:01:17;2.95;;;2.75;;
12776;SDS011;6452;41.572;23.732;2023-04-20T12:03:44;3.50;;;3.22;;
12776;SDS011;6452;41.572;23.732;2023-04-20T12:06:10;3.88;;;3.60;;
12776;SDS011;6452;41.572;23.732;2023-04-20T12:08:37;4.43;;;4.10;;
12776;SDS011;6452;41.572;23.732;2023-04-20T12:11:03;3.58;;;3.28;;
12776;SDS011;6452;41.572;23.732;2023-04-20T12:13:31;3.75;;;3.45;;
12776;SDS011;6452;41.572;23.732;2023-04-20T12:15:58;3.95;;;3.70;;
12776;SDS011;6452;41.572;23.732;2023-04-20T12:18:24;3.97;;;3.67;;
12776;SDS011;6452;41.572;23.732;2023-04-20T12:20:49;4.00;;;3.70;;
12776;SDS011;6452;41.572;23.732;2023-04-20T12:23:16;4.78;;;4.38;;
12776;SDS011;6452;41.572;23.732;2023-04-20T12:25:41;4.93;;;4.45;;
12776;SDS011;6452;41.572;23.732;2023-04-20T12:28:07;5.40;;;4.90;;
12776;SDS011;6452;41.572;23.732;2023-04-20T12:30:34;11.30;;;8.05;;
12776;SDS011;6452;41.572;23.732;2023-04-20T12:33:00;8.15;;;7.03;;
12776;SDS011;6452;41.572;23.732;2023-04-20T12:35:27;6.53;;;5.72;;
12776;SDS011;6452;41.572;23.732;2023-04-20T12:37:53;5.78;;;5.18;;
12776;SDS011;6452;41.572;23.732;2023-04-20T12:40:20;5.00;;;4.57;;
12776;SDS011;6452;41.572;23.732;2023-04-20T12:42:46;7.18;;;6.47;;
12776;SDS011;6452;41.572;23.732;2023-04-20T12:45:12;6.80;;;6.00;;
12776;SDS011;6452;41.572;23.732;2023-04-20T12:47:38;7.82;;;6.00;;
12776;SDS011;6452;41.572;23.732;2023-04-20T12:50:04;3.80;;;3.55;;
12776;SDS011;6452;41.572;23.732;2023-04-20T12:52:32;4.78;;;4.30;;
12776;SDS011;6452;41.572;23.732;2023-04-20T12:54:58;3.72;;;3.40;;
12776;SDS011;6452;41.572;23.732;2023-04-20T12:57:24;4.25;;;3.20;;
12776;SDS011;6452;41.572;23.732;2023-04-20T12:59:51;3.65;;;3.45;;
12776;SDS011;6452;41.572;23.732;2023-04-20T13:02:17;3.28;;;3.08;;
12776;SDS011;6452;41.572;23.732;2023-04-20T13:04:43;2.92;;;2.58;;
12776;SDS011;6452;41.572;23.732;2023-04-20T13:07:11;3.10;;;3.00;;
12776;SDS011;6452;41.572;23.732;2023-04-20T13:09:37;2.60;;;2.50;;
12776;SDS011;6452;41.572;23.732;2023-04-20T13:12:03;3.90;;;3.60;;
12776;SDS011;6452;41.572;23.732;2023-04-20T13:14:30;3.83;;;3.60;;
12776;SDS011;6452;41.572;23.732;2023-04-20T13:16:56;3.40;;;3.17;;
12776;SDS011;6452;41.572;23.732;2023-04-20T13:19:29;4.25;;;3.88;;
12776;SDS011;6452;41.572;23.732;2023-04-20T13:22:11;3.22;;;3.03;;
12776;SDS011;6452;41.572;23.732;2023-04-20T13:24:38;3.30;;;3.10;;
12776;SDS011;6452;41.572;23.732;2023-04-20T13:27:03;2.72;;;2.63;;
12776;SDS011;6452;41.572;23.732;2023-04-20T13:29:34;3.10;;;2.78;;
12776;SDS011;6452;41.572;23.732;2023-04-20T13:32:00;2.53;;;2.42;;
12776;SDS011;6452;41.572;23.732;2023-04-20T13:34:26;2.50;;;2.40;;
12776;SDS011;6452;41.572;23.732;2023-04-20T13:36:52;3.05;;;2.85;;
12776;SDS011;6452;41.572;23.732;2023-04-20T13:39:18;3.20;;;2.90;;
12776;SDS011;6452;41.572;23.732;2023-04-20T13:41:45;2.72;;;2.63;;
12776;SDS011;6452;41.572;23.732;2023-04-20T13:44:12;2.83;;;2.67;;
12776;SDS011;6452;41.572;23.732;2023-04-20T13:46:41;2.45;;;2.30;;
12776;SDS011;6452;41.572;23.732;2023-04-20T13:49:07;2.60;;;2.40;;
12776;SDS011;6452;41.572;23.732;2023-04-20T13:51:33;2.97;;;2.63;;
12776;SDS011;6452;41.572;23.732;2023-04-20T13:54:00;2.15;;;2.05;;
12776;SDS011;6452;41.572;23.732;2023-04-20T13:56:25;3.53;;;3.20;;
12776;SDS011;6452;41.572;23.732;2023-04-20T13:58:52;2.42;;;2.33;;
12776;SDS011;6452;41.572;23.732;2023-04-20T14:01:18;2.53;;;2.35;;
12776;SDS011;6452;41.572;23.732;2023-04-20T14:03:43;2.92;;;2.50;;
12776;SDS011;6452;41.572;23.732;2023-04-20T14:06:10;2.40;;;2.20;;
12776;SDS011;6452;41.572;23.732;2023-04-20T14:08:35;2.75;;;2.55;;
12776;SDS011;6452;41.572;23.732;2023-04-20T14:11:01;2.75;;;2.55;;
12776;SDS011;6452;41.572;23.732;2023-04-20T14:13:27;2.15;;;2.05;;
12776;SDS011;6452;41.572;23.732;2023-04-20T14:15:54;2.33;;;2.22;;
12776;SDS011;6452;41.572;23.732;2023-04-20T14:18:21;2.50;;;2.40;;
12776;SDS011;6452;41.572;23.732;2023-04-20T14:20:47;2.35;;;2.25;;
12776;SDS011;6452;41.572;23.732;2023-04-20T14:23:19;2.97;;;2.78;;
12776;SDS011;6452;41.572;23.732;2023-04-20T14:25:45;2.55;;;2.45;;
12776;SDS011;6452;41.572;23.732;2023-04-20T14:28:12;2.83;;;2.65;;
12776;SDS011;6452;41.572;23.732;2023-04-20T14:30:38;2.70;;;2.50;;
12776;SDS011;6452;41.572;23.732;2023-04-20T14:33:04;2.22;;;2.03;;
12776;SDS011;6452;41.572;23.732;2023-04-20T14:35:31;2.65;;;2.45;;
12776;SDS011;6452;41.572;23.732;2023-04-20T14:37:57;2.72;;;2.53;;
12776;SDS011;6452;41.572;23.732;2023-04-20T14:40:23;2.42;;;2.33;;
12776;SDS011;6452;41.572;23.732;2023-04-20T14:42:49;2.70;;;2.60;;
12776;SDS011;6452;41.572;23.732;2023-04-20T14:45:15;2.50;;;2.40;;
12776;SDS011;6452;41.572;23.732;2023-04-20T14:47:42;3.00;;;2.70;;